Strona główna
METAR-TAF:

METAR-TAF

Lotnisko :

Port lotniczy Vaasa

Vaasa, Finlandia

Szerokość geograficzna: 63-03N, Długość geograficzna: 021-46E, wysokość: 4 m

Aktualna obserwacja pogody

Raport powstał 14 minut temu, godzina 04:20 UTC
Wiatr 11 kt od zachód
Temperatura 2°C
Wilgotność 80%
Ciśnienie 1003 hPa
Widzialność 10 km lub więcej
Brak chmur poniżej 1500 m i brak chmur cumulonimbus

METAR: EFVA 090420Z AUTO 26011KT CAVOK 02/M01 Q1003

czas: 07:34 (04:34 UTC)

Prognoza

Raport powstał 2 godziny i 5 minut temu, godzina 02:29 UTC
Prognoza ważna od 09 godzina 03 UTC do 10 godzina 03 UTC
Wiatr 10 kt od zachodnio-południowy zachód
Widzialność 10 km lub więcej
Mało chmury na wysokości 2500 ft
Stopniowe zmiany
od 09 godzina 06 UTC do 09 godzina 08 UTC
Wiatr 12 kt od północny zachód
Przejściowo
od 09 godzina 18 UTC do 10 godzina 02 UTC
Mało chmury na wysokości 4000 ft, Cumulonimbus.

TAF: EFVA 090229Z 0903/1003 24010KT 9999 FEW025 BECMG 0906/0908 32012KT TEMPO 0918/1002 FEW040CB

Obserwacja i prognoza pogody dla ponad 4000 lotnisk (raport METAR i TAF).

Dostępne stacje oznaczono żółtymi i czerwonymi punktami na mapie.

Najedź kursorem aby zobaczyć nazwę stacji.

Kliknij aby zobaczyć obserwacje i prognozy pogody.

Aby zmienić mapę: kliknij na zielony przycisk z czarnym krzyżykiem, aby powiększyć; na zielony przycisk z myślnikiem, aby pomniejszyć; na zielone strzałki, aby przejść do map sąsiednich.


METAR-TAF: